Time;durP1;ratioP1;P1;durP2;ratioP2;P2;SDS_P1;SDS_P2;PMS_P1;PMS_P2;Temp;Humidity;BMP_temperature;BMP_pressure;BME280_temperature;BME280_humidity;BME280_pressure;Samples;Min_cycle;Max_cycle;Signal;HPM_P1;HPM_P2
2023/09/09 00:01:06;;;;;;;;;;;;;;;16.09;81.75;101872.44;105779;1270;125792;-79
2023/09/09 00:03:34;;;;;;;;;;;;;;;16.09;81.80;101873.14;106096;1267;61328;-80
2023/09/09 00:06:08;;;;;;;;;;;;;;;16.08;81.82;101872.77;106010;1267;125220;-79
2023/09/09 00:08:35;;;;;;;;;;;;;;;16.08;81.86;101869.93;106106;1270;73478;-82
2023/09/09 00:11:01;;;;;;;;;;;;;;;16.07;81.91;101870.63;106162;1267;66262;-83
2023/09/09 00:13:28;;;;;;;;;;;;;;;16.07;81.89;101869.39;105998;1267;126118;-81
2023/09/09 00:15:54;;;;;;;;;;;;;;;16.06;81.82;101865.81;106015;1267;59777;-78
2023/09/09 00:18:21;;;;;;;;;;;;;;;16.06;82.00;101867.06;105997;1267;125468;-78
2023/09/09 00:20:48;;;;;;;;;;;;;;;16.05;82.01;101867.22;106035;1267;74756;-78
2023/09/09 00:23:14;;;;;;;;;;;;;;;16.04;81.99;101869.33;106003;1268;61302;-79
2023/09/09 00:25:41;;;;;;;;;;;;;;;16.03;82.02;101869.66;105855;1271;125086;-79
2023/09/09 00:28:08;;;;;;;;;;;;;;;16.02;82.10;101870.16;105989;1270;61338;-79
2023/09/09 00:30:35;;;;;;;;;;;;;;;16.02;82.10;101871.23;105712;1269;125009;-78
2023/09/09 00:33:02;;;;;;;;;;;;;;;16.01;82.09;101870.86;105913;1267;73409;-80
2023/09/09 00:35:29;;;;;;;;;;;;;;;16.00;82.10;101872.79;105891;1267;66293;-78
2023/09/09 00:37:56;;;;;;;;;;;;;;;15.99;82.14;101870.27;105976;1267;125151;-78
2023/09/09 00:40:22;;;;;;;;;;;;;;;15.99;82.15;101876.65;106049;1267;61271;-79
2023/09/09 00:42:49;;;;;;;;;;;;;;;15.98;82.21;101876.27;105910;1268;125117;-78
2023/09/09 00:45:15;;;;;;;;;;;;;;;15.96;82.11;101873.40;105945;1267;61304;-78
2023/09/09 00:47:42;;;;;;;;;;;;;;;15.93;82.10;101876.91;106081;1267;64905;-80
2023/09/09 00:50:11;;;;;;;;;;;;;;;15.92;82.06;101877.56;105892;1267;125302;-79
2023/09/09 00:52:38;;;;;;;;;;;;;;;15.91;82.21;101876.30;105898;1273;61460;-79
2023/09/09 00:55:08;;;;;;;;;;;;;;;15.91;82.16;101877.37;105935;1267;125394;-79
2023/09/09 00:57:34;;;;;;;;;;;;;;;15.90;82.16;101876.30;106081;1267;73217;-79
2023/09/09 01:00:09;;;;;;;;;;;;;;;15.88;82.11;101879.08;106093;1267;125815;-79
2023/09/09 01:02:36;;;;;;;;;;;;;;;15.86;82.19;101879.58;106161;1267;71691;-81
2023/09/09 01:05:04;;;;;;;;;;;;;;;15.83;82.18;101875.08;108403;1267;59326;-78
2023/09/09 01:07:49;;;;;;;;;;;;;;;15.83;82.30;101874.90;106796;1267;124964;-79
2023/09/09 01:10:16;;;;;;;;;;;;;;;15.82;82.25;101874.36;106039;1267;74719;-79
2023/09/09 01:12:43;;;;;;;;;;;;;;;15.81;82.12;101873.09;106053;1271;125244;-79
2023/09/09 01:15:10;;;;;;;;;;;;;;;15.80;82.14;101875.55;105839;1270;71433;-77
2023/09/09 01:17:36;;;;;;;;;;;;;;;15.78;82.23;101877.98;106062;1267;59668;-79
2023/09/09 01:20:13;;;;;;;;;;;;;;;15.78;82.33;101881.17;105825;1268;125424;-79
2023/09/09 01:22:40;;;;;;;;;;;;;;;15.76;82.20;101881.11;105972;1267;73213;-80
2023/09/09 01:25:07;;;;;;;;;;;;;;;15.73;82.27;101882.84;105859;1268;125155;-80
2023/09/09 01:27:33;;;;;;;;;;;;;;;15.71;82.24;101885.06;106122;1270;71539;-80
2023/09/09 01:30:00;;;;;;;;;;;;;;;15.70;82.29;101892.83;105870;1268;125418;-81
2023/09/09 01:32:27;;;;;;;;;;;;;;;15.67;82.25;101898.05;106096;1267;61323;-80
2023/09/09 01:34:53;;;;;;;;;;;;;;;15.64;82.37;101893.73;106022;1267;74857;-80
2023/09/09 01:37:20;;;;;;;;;;;;;;;15.61;82.34;101889.61;105932;1267;129891;-80
2023/09/09 01:39:46;;;;;;;;;;;;;;;15.59;82.36;101893.11;105978;1267;71163;-80
2023/09/09 01:42:14;;;;;;;;;;;;;;;15.58;82.42;101889.37;105780;1267;126093;-80
2023/09/09 01:44:45;;;;;;;;;;;;;;;15.56;82.38;101888.97;106030;1267;61279;-79
2023/09/09 01:47:13;;;;;;;;;;;;;;;15.54;82.54;101883.09;106033;1267;74824;-80
2023/09/09 01:49:43;;;;;;;;;;;;;;;15.52;82.49;101886.59;105957;1267;125136;-79
2023/09/09 01:52:09;;;;;;;;;;;;;;;15.53;82.63;101891.02;106064;1268;71427;-80
2023/09/09 01:54:36;;;;;;;;;;;;;;;15.53;82.64;101895.45;106002;1270;125845;-80
2023/09/09 01:57:02;;;;;;;;;;;;;;;15.52;82.62;101891.52;105951;1266;61236;-79
2023/09/09 01:59:29;;;;;;;;;;;;;;;15.50;82.57;101889.02;105880;1267;59465;-79
2023/09/09 02:01:55;;;;;;;;;;;;;;;15.49;82.67;101888.45;105818;1269;125204;-79
2023/09/09 02:04:22;;;;;;;;;;;;;;;15.47;82.70;101889.47;105954;1270;72801;-80
2023/09/09 02:06:48;;;;;;;;;;;;;;;15.45;82.71;101887.65;105889;1268;124996;-78
2023/09/09 02:09:15;;;;;;;;;;;;;;;15.44;82.84;101888.86;105132;1267;59656;-79
2023/09/09 02:11:45;;;;;;;;;;;;;;;15.43;82.88;101887.59;105164;1271;74447;-81
2023/09/09 02:14:11;;;;;;;;;;;;;;;15.42;83.00;101887.40;105994;1268;125160;-80
2023/09/09 02:16:38;;;;;;;;;;;;;;;15.42;83.00;101885.65;105947;1268;72468;-79
2023/09/09 02:19:04;;;;;;;;;;;;;;;15.43;83.05;101885.30;105787;1268;126621;-79
2023/09/09 02:21:31;;;;;;;;;;;;;;;15.44;83.05;101881.62;106039;1267;59722;-79
2023/09/09 02:23:57;;;;;;;;;;;;;;;15.43;82.96;101881.07;105824;1267;125695;-79
2023/09/09 02:26:24;;;;;;;;;;;;;;;15.43;83.06;101881.24;106121;1267;61198;-79
2023/09/09 02:28:51;;;;;;;;;;;;;;;15.44;82.93;101880.55;106015;1271;72759;-80
2023/09/09 02:31:17;;;;;;;;;;;;;;;15.44;82.86;101880.02;105979;1268;125564;-80
2023/09/09 02:33:44;;;;;;;;;;;;;;;15.42;82.86;101879.63;106130;1267;61358;-79
2023/09/09 02:36:10;;;;;;;;;;;;;;;15.42;82.85;101877.14;105944;1267;126278;-80
2023/09/09 02:38:37;;;;;;;;;;;;;;;15.41;82.90;101875.19;105973;1267;61301;-80
2023/09/09 02:41:03;;;;;;;;;;;;;;;15.41;82.75;101876.95;106046;1267;72733;-79
2023/09/09 02:43:30;;;;;;;;;;;;;;;15.39;82.62;101875.83;105822;1268;125407;-79
2023/09/09 02:45:56;;;;;;;;;;;;;;;15.36;82.69;101877.91;105949;1268;61387;-79
2023/09/09 02:48:23;;;;;;;;;;;;;;;15.35;82.71;101880.02;105770;1267;125127;-79
2023/09/09 02:50:49;;;;;;;;;;;;;;;15.35;82.76;101877.16;105898;1267;64713;-78
2023/09/09 02:53:16;;;;;;;;;;;;;;;15.35;82.67;101875.42;106008;1267;59345;-79
2023/09/09 02:55:42;;;;;;;;;;;;;;;15.36;82.78;101872.05;105829;1267;125730;-80
2023/09/09 02:58:12;;;;;;;;;;;;;;;15.36;82.72;101872.59;105957;1268;61419;-80
2023/09/09 03:00:39;;;;;;;;;;;;;;;15.36;82.70;101874.89;105942;1267;125260;-82
2023/09/09 03:03:05;;;;;;;;;;;;;;;15.34;82.72;101871.84;106157;1271;66305;-80
2023/09/09 03:05:35;;;;;;;;;;;;;;;15.33;82.71;101869.01;106103;1267;72788;-81
2023/09/09 03:08:02;;;;;;;;;;;;;;;15.34;82.63;101870.25;105896;1267;124940;-81
2023/09/09 03:10:29;;;;;;;;;;;;;;;15.33;82.79;101871.99;106054;1272;61246;-80
2023/09/09 03:12:58;;;;;;;;;;;;;;;15.33;82.77;101872.53;105983;1267;125117;-80
2023/09/09 03:15:24;;;;;;;;;;;;;;;15.34;82.88;101871.13;105895;1271;66327;-81
2023/09/09 03:17:51;;;;;;;;;;;;;;;15.35;82.84;101876.63;105845;1268;125580;-81
2023/09/09 03:20:17;;;;;;;;;;;;;;;15.34;82.81;101881.40;106084;1267;61184;-80
2023/09/09 03:22:44;;;;;;;;;;;;;;;15.33;82.82;101884.21;106006;1266;60588;-80
2023/09/09 03:25:10;;;;;;;;;;;;;;;15.33;82.74;101886.48;105918;1268;125556;-79
2023/09/09 03:27:37;;;;;;;;;;;;;;;15.31;82.76;101883.98;106023;1267;61194;-79
2023/09/09 03:30:04;;;;;;;;;;;;;;;15.30;82.79;101881.47;106038;1267;126189;-80
2023/09/09 03:32:31;;;;;;;;;;;;;;;15.28;82.83;101879.31;106134;1267;61297;-80
2023/09/09 03:34:57;;;;;;;;;;;;;;;15.27;82.77;101881.02;106157;1268;61680;-80
2023/09/09 03:37:24;;;;;;;;;;;;;;;15.24;82.95;101881.34;105987;1270;125497;-82
2023/09/09 03:39:50;;;;;;;;;;;;;;;15.23;82.91;101882.19;106049;1268;61322;-80
2023/09/09 03:42:17;;;;;;;;;;;;;;;15.22;82.89;101880.74;105890;1267;125373;-82
2023/09/09 03:44:43;;;;;;;;;;;;;;;15.20;83.01;101880.71;106080;1267;61252;-82
2023/09/09 03:47:10;;;;;;;;;;;;;;;15.20;82.99;101876.27;105997;1267;61166;-84
2023/09/09 03:49:36;;;;;;;;;;;;;;;15.19;82.91;101875.01;105786;1268;124941;-83
2023/09/09 03:52:03;;;;;;;;;;;;;;;15.18;83.05;101874.82;106136;1268;59916;-82
2023/09/09 03:54:29;;;;;;;;;;;;;;;15.18;83.01;101876.05;105968;1267;125913;-80
2023/09/09 03:56:56;;;;;;;;;;;;;;;15.18;83.04;101872.17;106026;1267;61147;-80
2023/09/09 03:59:23;;;;;;;;;;;;;;;15.18;83.03;101872.15;106133;1267;61356;-81
2023/09/09 04:01:49;;;;;;;;;;;;;;;15.17;83.09;101874.79;105817;1267;126151;-79
2023/09/09 04:04:15;;;;;;;;;;;;;;;15.18;83.10;101880.81;105190;1267;61304;-81
2023/09/09 04:06:42;;;;;;;;;;;;;;;15.18;83.05;101878.52;105939;1271;125079;-80
2023/09/09 04:09:09;;;;;;;;;;;;;;;15.19;83.17;101879.63;106105;1268;61338;-81
2023/09/09 04:11:35;;;;;;;;;;;;;;;15.20;83.19;101880.71;105993;1267;59290;-80
2023/09/09 04:14:02;;;;;;;;;;;;;;;15.22;83.16;101884.31;105924;1267;125611;-81
2023/09/09 04:16:29;;;;;;;;;;;;;;;15.24;83.12;101883.11;106085;1267;63996;-81
2023/09/09 04:18:55;;;;;;;;;;;;;;;15.27;83.08;101881.73;105994;1267;124998;-80
2023/09/09 04:21:22;;;;;;;;;;;;;;;15.27;83.05;101881.05;105975;1271;61350;-81
2023/09/09 04:23:48;;;;;;;;;;;;;;;15.30;83.21;101882.36;106000;1268;61272;-80
2023/09/09 04:26:15;;;;;;;;;;;;;;;15.35;83.23;101877.88;106023;1267;74585;-81
2023/09/09 04:28:42;;;;;;;;;;;;;;;15.39;83.06;101874.78;106091;1267;59810;-81
2023/09/09 04:31:08;;;;;;;;;;;;;;;15.41;83.02;101875.55;105971;1267;125312;-80
2023/09/09 04:33:35;;;;;;;;;;;;;;;15.45;82.91;101871.91;105988;1268;61326;-80
2023/09/09 04:36:01;;;;;;;;;;;;;;;15.48;82.99;101870.05;105894;1268;125144;-84
2023/09/09 04:38:28;;;;;;;;;;;;;;;15.54;82.99;101872.30;105860;1267;73426;-83
2023/09/09 04:40:55;;;;;;;;;;;;;;;15.65;83.12;101872.52;106042;1267;66815;-82
2023/09/09 04:43:21;;;;;;;;;;;;;;;15.77;83.09;101870.70;105920;1267;125610;-84
2023/09/09 04:45:48;;;;;;;;;;;;;;;15.90;83.07;101872.21;105972;1267;59256;-83
2023/09/09 04:48:14;;;;;;;;;;;;;;;15.99;82.81;101869.73;105901;1267;125590;-82
2023/09/09 04:50:41;;;;;;;;;;;;;;;16.02;82.49;101868.39;105938;1268;59706;-81
2023/09/09 04:53:07;;;;;;;;;;;;;;;16.04;82.22;101865.26;105917;1271;61300;-83
2023/09/09 04:55:34;;;;;;;;;;;;;;;16.07;82.25;101862.66;105846;1274;126594;-83
2023/09/09 04:58:01;;;;;;;;;;;;;;;16.11;82.18;101863.45;105963;1270;61089;-82
2023/09/09 05:00:27;;;;;;;;;;;;;;;16.15;81.99;101860.33;105951;1267;125153;-82
2023/09/09 05:02:54;;;;;;;;;;;;;;;16.18;81.90;101860.39;105979;1268;74555;-82
2023/09/09 05:05:21;;;;;;;;;;;;;;;16.23;81.83;101857.13;106028;1268;65066;-83
2023/09/09 05:07:47;;;;;;;;;;;;;;;16.26;81.73;101855.77;105886;1271;125147;-81
2023/09/09 05:10:14;;;;;;;;;;;;;;;16.30;81.78;101862.05;105931;1270;61393;-82
2023/09/09 05:12:40;;;;;;;;;;;;;;;16.41;81.80;101862.79;105798;1268;125054;-82
2023/09/09 05:15:10;;;;;;;;;;;;;;;16.50;81.74;101861.02;105973;1268;61295;-83
2023/09/09 05:17:36;;;;;;;;;;;;;;;16.60;81.59;101857.46;106065;1270;64734;-83
2023/09/09 05:20:03;;;;;;;;;;;;;;;16.72;81.57;101857.85;106060;1268;125080;-84
2023/09/09 05:22:29;;;;;;;;;;;;;;;16.85;81.58;101858.80;105979;1270;61198;-83
2023/09/09 05:24:56;;;;;;;;;;;;;;;17.00;81.50;101859.41;105949;1270;125721;-83
2023/09/09 05:27:22;;;;;;;;;;;;;;;17.14;81.30;101856.80;106031;1267;61121;-83
2023/09/09 05:29:49;;;;;;;;;;;;;;;17.29;81.26;101853.30;106010;1268;125327;-82
2023/09/09 05:32:16;;;;;;;;;;;;;;;17.46;81.23;101848.94;105972;1267;59528;-82
2023/09/09 05:34:42;;;;;;;;;;;;;;;17.65;80.97;101852.22;106173;1268;61157;-81
2023/09/09 05:37:09;;;;;;;;;;;;;;;17.80;80.72;101848.87;106270;1268;125514;-82
2023/09/09 05:39:35;;;;;;;;;;;;;;;17.93;80.44;101846.04;106425;1268;61141;-82
2023/09/09 05:42:02;;;;;;;;;;;;;;;18.05;80.30;101847.77;106292;1268;126153;-82
2023/09/09 05:44:29;;;;;;;;;;;;;;;18.17;80.04;101845.60;106218;1267;72937;-82
2023/09/09 05:46:55;;;;;;;;;;;;;;;18.25;79.73;101848.17;106394;1267;61342;-83
2023/09/09 05:49:22;;;;;;;;;;;;;;;18.34;79.62;101851.48;106217;1267;125018;-81
2023/09/09 05:51:48;;;;;;;;;;;;;;;18.43;79.47;101844.10;105983;1268;61274;-82
2023/09/09 05:54:18;;;;;;;;;;;;;;;18.54;79.23;101841.71;105932;1267;126689;-83
2023/09/09 05:56:44;;;;;;;;;;;;;;;18.65;79.06;101836.48;105964;1271;72766;-82
2023/09/09 05:59:11;;;;;;;;;;;;;;;18.76;78.97;101837.48;106092;1268;61247;-82
2023/09/09 06:01:37;;;;;;;;;;;;;;;18.93;78.72;101843.34;105938;1267;125191;-82
2023/09/09 06:04:04;;;;;;;;;;;;;;;19.06;78.45;101838.81;106058;1268;74782;-83
2023/09/09 06:06:30;;;;;;;;;;;;;;;19.16;78.14;101840.48;105965;1268;125765;-83
2023/09/09 06:08:59;;;;;;;;;;;;;;;19.29;78.10;101836.48;105996;1268;72496;-83
2023/09/09 06:11:26;;;;;;;;;;;;;;;19.41;77.87;101838.16;105926;1268;61403;-83
2023/09/09 06:13:52;;;;;;;;;;;;;;;19.48;77.48;101836.41;105880;1268;125544;-80
2023/09/09 06:16:19;;;;;;;;;;;;;;;19.55;77.26;101841.27;106421;1268;61282;-81
2023/09/09 06:18:45;;;;;;;;;;;;;;;19.57;76.94;101840.02;105930;1270;124849;-81
2023/09/09 06:21:12;;;;;;;;;;;;;;;19.57;76.83;101841.80;106422;1267;72784;-81
2023/09/09 06:23:40;;;;;;;;;;;;;;;19.63;76.94;101846.10;106216;1268;61217;-82
2023/09/09 06:26:07;;;;;;;;;;;;;;;19.72;76.91;101843.84;106051;1268;124083;-83
2023/09/09 06:28:33;;;;;;;;;;;;;;;19.80;76.64;101843.73;106028;1268;61174;-83
2023/09/09 06:31:00;;;;;;;;;;;;;;;19.84;76.28;101850.69;106103;1268;124350;-83
2023/09/09 06:33:26;;;;;;;;;;;;;;;19.87;76.00;101853.91;105973;1268;61272;-83
2023/09/09 06:35:54;;;;;;;;;;;;;;;19.93;75.89;101854.29;105941;1270;125285;-83
2023/09/09 06:38:20;;;;;;;;;;;;;;;20.01;75.85;101857.70;105917;1270;61150;-81
2023/09/09 06:40:47;;;;;;;;;;;;;;;20.08;75.70;101858.62;105957;1268;74509;-82
2023/09/09 06:43:16;;;;;;;;;;;;;;;20.17;75.68;101858.11;105885;1268;124585;-83
2023/09/09 06:45:43;;;;;;;;;;;;;;;20.29;75.59;101858.33;108004;1268;72033;-81
2023/09/09 06:48:10;;;;;;;;;;;;;;;20.40;75.34;101863.52;105952;1267;124758;-81
2023/09/09 06:50:37;;;;;;;;;;;;;;;20.51;75.18;101862.64;105945;1267;61188;-80
2023/09/09 06:53:03;;;;;;;;;;;;;;;20.60;75.00;101865.00;106085;1270;60391;-81
2023/09/09 06:55:30;;;;;;;;;;;;;;;20.66;74.73;101861.80;105826;1268;125073;-80
2023/09/09 06:57:56;;;;;;;;;;;;;;;20.71;74.50;101860.03;105887;1268;73536;-87
2023/09/09 07:00:23;;;;;;;;;;;;;;;20.76;74.43;101860.39;105806;1268;124350;-87
2023/09/09 07:02:49;;;;;;;;;;;;;;;20.84;74.47;101861.28;105819;1268;59482;-86
2023/09/09 07:05:19;;;;;;;;;;;;;;;20.93;74.26;101862.17;105921;1268;74914;-87
2023/09/09 07:07:45;;;;;;;;;;;;;;;21.02;74.03;101866.81;105960;1270;125060;-87
2023/09/09 07:10:12;;;;;;;;;;;;;;;21.11;73.84;101870.20;105838;1268;73708;-86
2023/09/09 07:12:39;;;;;;;;;;;;;;;21.24;73.54;101872.67;105613;1271;124970;-87
2023/09/09 07:15:06;;;;;;;;;;;;;;;21.39;73.50;101872.13;105881;1267;60062;-87
2023/09/09 07:17:32;;;;;;;;;;;;;;;21.55;73.09;101871.94;105991;1271;73249;-86
2023/09/09 07:19:59;;;;;;;;;;;;;;;21.69;72.93;101868.70;105853;1270;125797;-86
2023/09/09 07:22:25;;;;;;;;;;;;;;;21.82;72.86;101868.45;106017;1270;71442;-79
2023/09/09 07:24:52;;;;;;;;;;;;;;;21.94;72.85;101869.66;105818;1270;125087;-81
2023/09/09 07:27:19;;;;;;;;;;;;;;;22.05;72.77;101866.94;105996;1271;61437;-83
2023/09/09 07:29:46;;;;;;;;;;;;;;;22.15;72.81;101865.27;105969;1269;74672;-86
2023/09/09 07:32:12;;;;;;;;;;;;;;;22.27;72.81;101867.73;105804;1268;125436;-83
2023/09/09 07:34:39;;;;;;;;;;;;;;;22.37;72.64;101866.08;105863;1268;73189;-84
2023/09/09 07:37:05;;;;;;;;;;;;;;;22.46;72.48;101870.84;105883;1270;124477;-84
2023/09/09 07:39:42;;;;;;;;;;;;;;;22.56;72.38;101870.25;105930;1270;59227;-84
2023/09/09 07:42:09;;;;;;;;;;;;;;;22.63;72.17;101868.05;105698;1272;124453;-80
2023/09/09 07:44:35;;;;;;;;;;;;;;;22.69;72.17;101867.28;105682;1267;248326;-83
2023/09/09 07:47:06;;;;;;;;;;;;;;;22.77;72.13;101867.23;106003;1267;73705;-83
2023/09/09 07:49:36;;;;;;;;;;;;;;;22.85;72.22;101866.27;105779;1267;125607;-82
2023/09/09 07:52:02;;;;;;;;;;;;;;;22.94;72.07;101866.36;105936;1268;61294;-83
2023/09/09 07:54:29;;;;;;;;;;;;;;;23.03;71.89;101870.79;105835;1270;125127;-82
2023/09/09 07:56:58;;;;;;;;;;;;;;;23.12;71.26;101870.00;105936;1271;64203;-77
2023/09/09 07:59:26;;;;;;;;;;;;;;;23.19;70.66;101873.88;105096;1268;72746;-79
2023/09/09 08:01:53;;;;;;;;;;;;;;;23.25;70.04;101869.35;108211;1267;124658;-80
2023/09/09 08:04:19;;;;;;;;;;;;;;;23.35;69.57;101867.45;108308;1267;59037;-80
2023/09/09 08:06:46;;;;;;;;;;;;;;;23.43;69.19;101868.98;107757;1268;125185;-82
2023/09/09 08:09:13;;;;;;;;;;;;;;;23.54;68.88;101872.63;105772;1273;66841;-80
2023/09/09 08:11:40;;;;;;;;;;;;;;;23.64;68.45;101870.71;105869;1267;70611;-83
2023/09/09 08:14:08;;;;;;;;;;;;;;;23.72;68.25;101871.88;105954;1270;125465;-83
2023/09/09 08:16:35;;;;;;;;;;;;;;;23.80;67.91;101870.55;105989;1267;61386;-82
2023/09/09 08:19:04;;;;;;;;;;;;;;;23.89;67.66;101873.86;105878;1268;124779;-84
2023/09/09 08:21:30;;;;;;;;;;;;;;;23.94;67.38;101880.09;105958;1267;65596;-84
2023/09/09 08:23:59;;;;;;;;;;;;;;;23.97;67.23;101877.89;105883;1268;124436;-83
2023/09/09 08:26:25;;;;;;;;;;;;;;;23.97;66.96;101875.19;105961;1267;61314;-82
2023/09/09 08:28:52;;;;;;;;;;;;;;;23.98;66.83;101875.54;105757;1269;61268;-85
2023/09/09 08:31:18;;;;;;;;;;;;;;;24.01;66.67;101875.86;105757;1268;124574;-84
2023/09/09 08:33:45;;;;;;;;;;;;;;;24.06;66.70;101872.93;105913;1270;66330;-85
2023/09/09 08:36:18;;;;;;;;;;;;;;;24.14;66.65;101865.64;105974;1268;125398;-82
2023/09/09 08:38:44;;;;;;;;;;;;;;;24.23;66.58;101866.42;106163;1267;59800;-83
2023/09/09 08:41:11;;;;;;;;;;;;;;;24.32;66.56;101865.20;106371;1270;59599;-83
2023/09/09 08:43:38;;;;;;;;;;;;;;;24.41;66.40;101863.80;106268;1272;124336;-83
2023/09/09 08:46:08;;;;;;;;;;;;;;;24.52;66.12;101865.13;106260;1267;59386;-84
2023/09/09 08:48:36;;;;;;;;;;;;;;;24.61;66.05;101866.06;106070;1268;125353;-84
2023/09/09 08:51:06;;;;;;;;;;;;;;;24.71;65.84;101861.60;105987;1267;61908;-82
2023/09/09 08:53:32;;;;;;;;;;;;;;;24.83;65.67;101863.01;105936;1267;61313;-84
2023/09/09 08:55:59;;;;;;;;;;;;;;;24.95;65.53;101863.36;105822;1267;126755;-84
2023/09/09 08:58:26;;;;;;;;;;;;;;;25.06;65.28;101860.65;105911;1269;65016;-84
2023/09/09 09:00:53;;;;;;;;;;;;;;;25.17;65.13;101858.48;105863;1268;124966;-83
2023/09/09 09:03:19;;;;;;;;;;;;;;;25.26;64.77;101853.32;105984;1273;61406;-85
2023/09/09 09:05:46;;;;;;;;;;;;;;;25.34;64.56;101852.63;105872;1269;61758;-82
2023/09/09 09:08:12;;;;;;;;;;;;;;;25.42;64.40;101852.83;105746;1272;125199;-82
2023/09/09 09:10:42;;;;;;;;;;;;;;;25.51;64.11;101846.90;106037;1267;61275;-83
2023/09/09 09:13:08;;;;;;;;;;;;;;;25.65;64.05;101842.48;105804;1267;124406;-84
2023/09/09 09:15:38;;;;;;;;;;;;;;;25.79;63.94;101841.66;105991;1272;61283;-83
2023/09/09 09:18:04;;;;;;;;;;;;;;;25.92;63.57;101839.24;105968;1268;124620;-83
2023/09/09 09:20:32;;;;;;;;;;;;;;;26.04;63.16;101839.72;105937;1267;72796;-83
2023/09/09 09:22:59;;;;;;;;;;;;;;;26.19;63.23;101841.89;106032;1267;66507;-83
2023/09/09 09:25:26;;;;;;;;;;;;;;;26.32;62.90;101842.33;105793;1268;124401;-83
2023/09/09 09:27:56;;;;;;;;;;;;;;;26.44;62.56;101848.33;105886;1267;61330;-84
2023/09/09 09:30:28;;;;;;;;;;;;;;;26.53;62.21;101847.39;105982;1269;124567;-84
2023/09/09 09:32:54;;;;;;;;;;;;;;;26.64;62.13;101842.13;105833;1268;74712;-84
2023/09/09 09:35:24;;;;;;;;;;;;;;;26.71;61.72;101841.77;105990;1268;59855;-83
2023/09/09 09:37:52;;;;;;;;;;;;;;;26.79;61.46;101839.95;105985;1267;124432;-83
2023/09/09 09:40:19;;;;;;;;;;;;;;;26.89;61.18;101840.77;105968;1270;61180;-84
2023/09/09 09:42:52;;;;;;;;;;;;;;;27.01;60.93;101838.84;105590;1276;124602;-83
2023/09/09 09:45:25;;;;;;;;;;;;;;;27.13;60.63;101833.84;105923;1270;67075;-83
2023/09/09 09:47:52;;;;;;;;;;;;;;;27.21;60.26;101833.98;105916;1273;61269;-82
2023/09/09 09:50:20;;;;;;;;;;;;;;;27.26;60.05;101832.79;106054;1267;124207;-82
2023/09/09 09:52:48;;;;;;;;;;;;;;;27.36;59.77;101833.05;105996;1268;61387;-83
2023/09/09 09:55:18;;;;;;;;;;;;;;;27.45;59.56;101834.80;105946;1273;124289;-83
2023/09/09 09:57:45;;;;;;;;;;;;;;;27.55;59.14;101834.31;106122;1267;73501;-83
2023/09/09 10:00:15;;;;;;;;;;;;;;;27.67;59.01;101835.23;105933;1267;124894;-82
2023/09/09 10:02:42;;;;;;;;;;;;;;;27.77;58.61;101833.88;105701;1271;64129;-83
2023/09/09 10:05:10;;;;;;;;;;;;;;;27.78;58.22;101830.77;106044;1267;61379;-83
2023/09/09 10:07:37;;;;;;;;;;;;;;;27.77;57.98;101825.93;105973;1268;124493;-83
2023/09/09 10:10:07;;;;;;;;;;;;;;;27.79;57.85;101825.33;105968;1272;64783;-84
2023/09/09 10:12:37;;;;;;;;;;;;;;;27.82;57.53;101828.48;105901;1267;124638;-83
2023/09/09 10:15:03;;;;;;;;;;;;;;;27.84;57.45;101832.40;105827;1270;63267;-83
2023/09/09 10:17:30;;;;;;;;;;;;;;;27.82;57.41;101832.46;105973;1271;59300;-85
2023/09/09 10:19:56;;;;;;;;;;;;;;;27.83;57.11;101823.42;105815;1270;124416;-82
2023/09/09 10:22:23;;;;;;;;;;;;;;;27.84;56.81;101819.77;105793;1273;64814;-83
2023/09/09 10:24:49;;;;;;;;;;;;;;;27.88;56.58;101820.57;105767;1273;124391;-83
2023/09/09 10:27:16;;;;;;;;;;;;;;;27.90;56.47;101820.50;105973;1267;64095;-83
2023/09/09 10:29:43;;;;;;;;;;;;;;;27.94;56.44;101820.58;105693;1267;61386;-83
2023/09/09 10:32:10;;;;;;;;;;;;;;;27.98;56.21;101820.48;105981;1268;124742;-84
2023/09/09 10:34:37;;;;;;;;;;;;;;;28.04;56.19;101819.55;106044;1270;64438;-84
2023/09/09 10:37:04;;;;;;;;;;;;;;;28.09;55.86;101819.57;105827;1273;124854;-84
2023/09/09 10:39:30;;;;;;;;;;;;;;;28.10;55.75;101820.45;105811;1273;65284;-82
2023/09/09 10:41:57;;;;;;;;;;;;;;;28.10;55.52;101817.90;105881;1268;61193;-84
2023/09/09 10:44:23;;;;;;;;;;;;;;;28.10;55.34;101817.91;105729;1268;124351;-84
2023/09/09 10:46:54;;;;;;;;;;;;;;;28.12;55.27;101816.95;105941;1271;66103;-84
2023/09/09 10:49:30;;;;;;;;;;;;;;;28.14;55.06;101817.80;105804;1267;124378;-83
2023/09/09 10:52:01;;;;;;;;;;;;;;;28.11;55.07;101816.08;105654;1274;62904;-83
2023/09/09 10:54:28;;;;;;;;;;;;;;;28.09;55.05;101814.33;105766;1268;125500;-83
2023/09/09 10:56:59;;;;;;;;;;;;;;;28.12;54.82;101813.71;105939;1271;61214;-88
2023/09/09 10:59:27;;;;;;;;;;;;;;;28.16;54.57;101813.39;105792;1273;66135;-89
2023/09/09 11:02:13;;;;;;;;;;;;;;;28.23;54.46;101811.38;105960;1271;124717;-81
2023/09/09 11:04:40;;;;;;;;;;;;;;;28.25;54.30;101812.40;105954;1270;64140;-85
2023/09/09 11:07:07;;;;;;;;;;;;;;;28.26;54.39;101811.26;105594;1267;124430;-79
2023/09/09 11:09:34;;;;;;;;;;;;;;;28.31;54.46;101805.34;105924;1271;59529;-84
2023/09/09 11:12:10;;;;;;;;;;;;;;;28.34;54.14;101806.49;105816;1273;124480;-82
2023/09/09 11:14:37;;;;;;;;;;;;;;;28.35;54.01;101802.86;105936;1267;61210;-85
2023/09/09 11:17:04;;;;;;;;;;;;;;;28.40;53.80;101803.05;106094;1268;64146;-82
2023/09/09 11:19:31;;;;;;;;;;;;;;;28.42;53.61;101803.37;105919;1271;125538;-83
2023/09/09 11:21:58;;;;;;;;;;;;;;;28.42;53.30;101803.17;106139;1271;61182;-82
2023/09/09 11:24:24;;;;;;;;;;;;;;;28.45;53.41;101801.99;105804;1273;125192;-84
2023/09/09 11:26:51;;;;;;;;;;;;;;;28.48;53.20;101799.56;106126;1271;61296;-84
2023/09/09 11:29:18;;;;;;;;;;;;;;;28.52;52.98;101800.17;105992;1270;62805;-84
2023/09/09 11:31:45;;;;;;;;;;;;;;;28.57;53.02;101801.80;105866;1267;124647;-83
2023/09/09 11:34:15;;;;;;;;;;;;;;;28.63;52.92;101801.25;106210;1267;61161;-82
2023/09/09 11:36:43;;;;;;;;;;;;;;;28.65;52.61;101799.17;105769;1270;125934;-83
2023/09/09 11:39:10;;;;;;;;;;;;;;;28.68;52.50;101799.80;106044;1267;61396;-83
2023/09/09 11:41:37;;;;;;;;;;;;;;;28.71;52.27;101798.27;105940;1272;64221;-83
2023/09/09 11:44:04;;;;;;;;;;;;;;;28.72;52.14;101798.05;105818;1268;125140;-83
2023/09/09 11:46:32;;;;;;;;;;;;;;;28.74;52.23;101794.75;106034;1268;61321;-82
2023/09/09 11:48:58;;;;;;;;;;;;;;;28.72;52.11;101795.52;105792;1269;124512;-83
2023/09/09 11:51:27;;;;;;;;;;;;;;;28.69;52.14;101794.35;105903;1271;59612;-83
2023/09/09 11:53:53;;;;;;;;;;;;;;;28.65;52.17;101795.95;105887;1273;64060;-83
2023/09/09 11:56:23;;;;;;;;;;;;;;;28.57;52.22;101792.42;105833;1268;124316;-84
2023/09/09 11:58:50;;;;;;;;;;;;;;;28.53;52.33;101792.19;105989;1267;59901;-84
2023/09/09 12:01:31;;;;;;;;;;;;;;;28.54;52.16;101790.02;105866;1272;124246;-84
2023/09/09 12:04:03;;;;;;;;;;;;;;;28.53;52.16;101788.23;105788;1267;59464;-83
2023/09/09 12:06:30;;;;;;;;;;;;;;;28.50;52.06;101786.84;105935;1271;124618;-83
2023/09/09 12:08:57;;;;;;;;;;;;;;;28.45;51.94;101786.84;105943;1267;61300;-82
2023/09/09 12:11:23;;;;;;;;;;;;;;;28.41;51.84;101784.45;106008;1272;61393;-84
2023/09/09 12:13:50;;;;;;;;;;;;;;;28.38;51.89;101782.73;105808;1270;124330;-84
2023/09/09 12:16:16;;;;;;;;;;;;;;;28.34;51.88;101780.54;106046;1267;61365;-89
2023/09/09 12:18:50;;;;;;;;;;;;;;;28.32;51.70;101780.03;105761;1273;124830;-90
2023/09/09 12:21:17;;;;;;;;;;;;;;;28.32;51.79;101777.34;106201;1268;61279;-89
2023/09/09 12:23:45;;;;;;;;;;;;;;;28.28;51.67;101777.27;106061;1267;61260;-90